Austinburg, Ohio
Current Conditions -  °F | °C
As of 3:53 PM on Tuesday 27 Jan 2015 (Local Time) from KHZY Reporting Station
Light Snow Light Snow  
Wind Chill: 10°   Ceiling: 1700
Heat Index: 19°   Visibility: 6mi
Dew Point: 12°   Wind: 7mph
Humidity: 74%   Direction: 10°N
Pressure: 30.06"   Gusts: NA
Location:  41.77°N, 80.85°W
Report Text: KHZY 272053Z AUTO 01006KT 6SM -SN OVC017 M07/M11 A3006 RMK AO2 SNB41 SLP194 P0000 60000 T10721111 53014
Loading
Personal Weather Stations






























Interactive Weather Map New forecast layout! Learn more

10-Day Weather Forecast

Advertisements
Track Severe Weather on mobile